createdAt,value
2023-12-12T00:01:53.682Z,96816.75
2023-12-12T00:04:39.251Z,96806.97
2023-12-12T00:07:24.654Z,96806.97
2023-12-12T00:10:10.127Z,96817.03
2023-12-12T00:12:55.243Z,96828.72
2023-12-12T00:15:40.139Z,96822.47
2023-12-12T00:18:25.257Z,96825.19
2023-12-12T00:21:10.684Z,96829.53
2023-12-12T00:23:55.625Z,96842.31
2023-12-12T00:26:40.599Z,96838.78
2023-12-12T00:29:25.841Z,96820.88
2023-12-12T00:32:10.658Z,96817.03
2023-12-12T00:34:56.108Z,96813.53
2023-12-12T00:37:41.254Z,96823.59
2023-12-12T00:40:26.690Z,96822.22
2023-12-12T00:43:12.273Z,96831.19
2023-12-12T00:45:57.386Z,96823.59
2023-12-12T00:48:42.928Z,96819.25
2023-12-12T00:51:28.509Z,96823.03
2023-12-12T00:54:13.373Z,96827.41
2023-12-12T00:56:58.348Z,96826.31
2023-12-12T00:59:43.536Z,96823.59
2023-12-12T01:02:28.595Z,96830.94
2023-12-12T01:05:13.577Z,96823.84
2023-12-12T01:07:58.928Z,96819.25
2023-12-12T01:10:44.049Z,96807.53
2023-12-12T01:13:29.522Z,96796.66
2023-12-12T01:16:14.689Z,96796.66
2023-12-12T01:19:00.246Z,96786.63
2023-12-12T01:21:45.640Z,96781.44
2023-12-12T01:24:30.496Z,96779.53
2023-12-12T01:27:15.479Z,96783.91
2023-12-12T01:30:00.430Z,96779.53
2023-12-12T01:32:45.621Z,96788.78
2023-12-12T01:35:30.934Z,96791.50
2023-12-12T01:38:15.973Z,96791.50
2023-12-12T01:41:04.409Z,96796.66
2023-12-12T01:43:49.465Z,96804.81
2023-12-12T01:46:34.522Z,96810.53
2023-12-12T01:49:19.908Z,96806.72
2023-12-12T01:52:05.093Z,96802.38
2023-12-12T01:54:50.658Z,96807.31
2023-12-12T01:57:35.486Z,96811.34
2023-12-12T02:00:20.217Z,96815.97
2023-12-12T02:03:05.216Z,96799.66
2023-12-12T02:05:50.458Z,96814.06
2023-12-12T02:08:35.657Z,96821.41
2023-12-12T02:11:20.537Z,96806.72
2023-12-12T02:14:05.565Z,96808.63
2023-12-12T02:16:50.447Z,96806.72
2023-12-12T02:19:35.639Z,96795.34
2023-12-12T02:22:20.918Z,96785.28
2023-12-12T02:25:06.401Z,96791.50
2023-12-12T02:27:51.862Z,96788.00
2023-12-12T02:30:36.696Z,96785.56
2023-12-12T02:33:21.712Z,96778.22
2023-12-12T02:36:07.036Z,96780.94
2023-12-12T02:38:52.332Z,96763.53
2023-12-12T02:41:37.533Z,96766.53
2023-12-12T02:44:22.505Z,96753.75
2023-12-12T02:47:07.928Z,96753.22
2023-12-12T02:49:52.929Z,96744.78
2023-12-12T02:52:38.493Z,96733.38
2023-12-12T02:55:23.795Z,96741.53
2023-12-12T02:58:09.299Z,96727.13
2023-12-12T03:00:54.487Z,96722.78
2023-12-12T03:03:39.825Z,96722.50
2023-12-12T03:06:24.801Z,96710.53
2023-12-12T03:09:09.677Z,96710.00
2023-12-12T03:11:54.923Z,96718.16
2023-12-12T03:14:39.899Z,96708.91
2023-12-12T03:17:24.950Z,96714.34
2023-12-12T03:20:09.889Z,96701.03
2023-12-12T03:22:54.711Z,96680.09
2023-12-12T03:25:40.278Z,96671.94
2023-12-12T03:28:25.352Z,96683.94
2023-12-12T03:31:10.848Z,96691.28
2023-12-12T03:33:56.211Z,96685.03
2023-12-12T03:36:41.628Z,96683.13
2023-12-12T03:39:26.696Z,96682.00
2023-12-12T03:42:12.060Z,96678.78
2023-12-12T03:44:57.431Z,96677.69
2023-12-12T03:47:42.431Z,96682.31
2023-12-12T03:50:28.039Z,96683.13
2023-12-12T03:53:13.079Z,96682.31
2023-12-12T03:55:58.160Z,96680.69
2023-12-12T03:58:43.193Z,96675.53
2023-12-12T04:01:28.377Z,96679.03
2023-12-12T04:04:13.783Z,96672.00
2023-12-12T04:06:59.378Z,96677.97
2023-12-12T04:09:44.710Z,96679.03
2023-12-12T04:12:29.712Z,96673.34
2023-12-12T04:15:14.812Z,96676.06
2023-12-12T04:17:59.923Z,96670.09
2023-12-12T04:20:45.323Z,96672.81
2023-12-12T04:23:30.715Z,96680.16
2023-12-12T04:26:15.674Z,96684.50
2023-12-12T04:29:00.780Z,96692.63
2023-12-12T04:31:45.997Z,96690.72
2023-12-12T04:34:31.373Z,96683.97
2023-12-12T04:37:16.986Z,96689.13
2023-12-12T04:40:02.438Z,96685.59
2023-12-12T04:42:47.776Z,96684.78
2023-12-12T04:45:32.757Z,96689.41
2023-12-12T04:48:18.057Z,96689.13
2023-12-12T04:51:03.490Z,96692.94
2023-12-12T04:53:48.377Z,96690.50
2023-12-12T04:56:33.423Z,96685.88
2023-12-12T04:59:18.271Z,96690.22
2023-12-12T05:02:03.556Z,96675.00
2023-12-12T05:04:48.638Z,96678.53
2023-12-12T05:07:33.884Z,96686.41
2023-12-12T05:10:19.420Z,96683.97
2023-12-12T05:13:04.708Z,96678.25
2023-12-12T05:15:50.989Z,96685.59
2023-12-12T05:18:36.681Z,96680.16
2023-12-12T05:21:22.329Z,96682.88
2023-12-12T05:24:07.740Z,96685.28
2023-12-12T05:26:52.714Z,96681.75
2023-12-12T05:29:37.731Z,96682.56
2023-12-12T05:32:22.726Z,96683.69
2023-12-12T05:35:08.166Z,96689.91
2023-12-12T05:37:56.161Z,96679.34
2023-12-12T05:40:41.559Z,96689.13
2023-12-12T05:43:26.942Z,96679.34
2023-12-12T05:46:11.925Z,96675.53
2023-12-12T05:48:57.467Z,96682.34
2023-12-12T05:51:42.761Z,96689.13
2023-12-12T05:54:27.640Z,96687.50
2023-12-12T05:57:12.854Z,96678.84
2023-12-12T05:59:58.038Z,96685.06
2023-12-12T06:02:42.977Z,96687.78
2023-12-12T06:05:27.940Z,96691.03
2023-12-12T06:08:13.210Z,96693.75
2023-12-12T06:10:58.296Z,96689.91
2023-12-12T06:13:43.418Z,96692.63
2023-12-12T06:16:28.923Z,96698.38
2023-12-12T06:19:14.182Z,96704.63
2023-12-12T06:21:59.361Z,96703.00
2023-12-12T06:24:44.744Z,96704.63
2023-12-12T06:27:29.855Z,96702.19
2023-12-12T06:30:15.147Z,96700.28
2023-12-12T06:33:00.586Z,96704.91
2023-12-12T06:35:45.927Z,96717.41
2023-12-12T06:38:30.834Z,96704.38
2023-12-12T06:41:15.783Z,96701.38
2023-12-12T06:44:01.009Z,96702.47
2023-12-12T06:46:46.029Z,96703.56
2023-12-12T06:49:31.187Z,96705.47
2023-12-12T06:52:16.515Z,96701.66
2023-12-12T06:55:02.246Z,96720.97
2023-12-12T06:57:47.720Z,96721.78
2023-12-12T07:00:32.865Z,96720.97
2023-12-12T07:03:18.269Z,96714.72
2023-12-12T07:06:03.345Z,96710.34
2023-12-12T07:08:50.180Z,96711.16
2023-12-12T07:11:37.000Z,96707.63
2023-12-12T07:14:21.815Z,96699.19
2023-12-12T07:17:06.867Z,96728.28
2023-12-12T07:19:52.085Z,96715.25
2023-12-12T07:22:37.569Z,96714.97
2023-12-12T07:25:23.060Z,96717.97
2023-12-12T07:28:08.236Z,96709.28
2023-12-12T07:30:53.772Z,96718.47
2023-12-12T07:33:38.823Z,96711.91
2023-12-12T07:36:23.879Z,96713.03
2023-12-12T07:39:08.803Z,96721.69
2023-12-12T07:41:53.745Z,96710.00
2023-12-12T07:44:39.129Z,96717.88
2023-12-12T07:47:33.964Z,96710.81
2023-12-12T07:50:23.874Z,96709.72
2023-12-12T07:53:08.874Z,96699.13
2023-12-12T07:55:53.772Z,96713.25
2023-12-12T07:58:38.753Z,96714.59
2023-12-12T08:01:24.238Z,96720.03
2023-12-12T08:04:09.418Z,96715.41
2023-12-12T08:06:54.583Z,96720.53
2023-12-12T08:09:39.878Z,96715.09
2023-12-12T08:12:24.938Z,96714.03
2023-12-12T08:15:09.727Z,96717.56
2023-12-12T08:17:54.830Z,96708.59
2023-12-12T08:20:40.248Z,96719.47
2023-12-12T08:23:25.366Z,96719.47
2023-12-12T08:26:10.310Z,96706.38
2023-12-12T08:28:55.121Z,96697.41
2023-12-12T08:31:40.133Z,96702.84
2023-12-12T08:34:25.599Z,96701.25
2023-12-12T08:37:10.671Z,96709.91
2023-12-12T08:39:55.879Z,96720.78
2023-12-12T08:42:40.953Z,96724.59
2023-12-12T08:45:25.972Z,96730.84
2023-12-12T08:48:11.040Z,96730.84
2023-12-12T08:50:56.491Z,96721.06
2023-12-12T08:53:41.303Z,96708.28
2023-12-12T08:56:26.220Z,96702.84
2023-12-12T08:59:11.467Z,96696.59
2023-12-12T09:01:56.700Z,96701.25
2023-12-12T09:04:42.064Z,96699.63
2023-12-12T09:07:27.438Z,96694.19
2023-12-12T09:10:12.673Z,96677.03
2023-12-12T09:12:57.994Z,96670.78
2023-12-12T09:15:43.403Z,96671.59
2023-12-12T09:18:28.742Z,96681.41
2023-12-12T09:21:14.187Z,96682.22
2023-12-12T09:23:59.738Z,96682.47
2023-12-12T09:26:44.642Z,96681.41
2023-12-12T09:29:29.552Z,96677.34
2023-12-12T09:32:14.709Z,96683.59
2023-12-12T09:34:59.596Z,96677.88
2023-12-12T09:37:44.622Z,96678.69
2023-12-12T09:40:30.043Z,96681.66
2023-12-12T09:43:15.454Z,96684.38
2023-12-12T09:46:00.870Z,96680.84
2023-12-12T09:48:46.295Z,96661.56
2023-12-12T09:51:31.635Z,96645.50
2023-12-12T09:54:16.836Z,96650.16
2023-12-12T09:57:01.824Z,96650.69
2023-12-12T09:59:47.258Z,96658.31
2023-12-12T10:02:32.116Z,96657.19
2023-12-12T10:05:17.082Z,96664.53
2023-12-12T10:08:08.175Z,96669.72
2023-12-12T10:10:56.133Z,96660.72
2023-12-12T10:13:41.253Z,96654.47
2023-12-12T10:16:26.596Z,96652.88
2023-12-12T10:19:12.362Z,96647.13
2023-12-12T10:21:57.795Z,96646.31
2023-12-12T10:24:43.069Z,96632.72
2023-12-12T10:27:27.931Z,96624.56
2023-12-12T10:30:13.309Z,96627.28
2023-12-12T10:32:58.650Z,96630.00
2023-12-12T10:35:43.862Z,96634.38
2023-12-12T10:38:28.858Z,96629.44
2023-12-12T10:41:14.738Z,96628.63
2023-12-12T10:44:00.343Z,96606.91
2023-12-12T10:46:45.249Z,96602.78
2023-12-12T10:49:30.369Z,96598.97
2023-12-12T10:52:15.967Z,96606.03
2023-12-12T10:55:01.105Z,96596.47
2023-12-12T10:57:46.714Z,96585.88
2023-12-12T11:00:32.262Z,96595.38
2023-12-12T11:03:17.558Z,96587.22
2023-12-12T11:06:02.642Z,96581.50
2023-12-12T11:08:48.204Z,96568.72
2023-12-12T11:11:33.646Z,96555.91
2023-12-12T11:14:18.473Z,96568.72
2023-12-12T11:17:03.487Z,96569.81
2023-12-12T11:19:48.392Z,96491.75
2023-12-12T11:22:35.558Z,96465.09
2023-12-12T11:25:21.678Z,96531.19
2023-12-12T11:28:09.378Z,96549.38
2023-12-12T11:30:55.921Z,96549.94
2023-12-12T11:33:41.486Z,96538.75
2023-12-12T11:36:26.789Z,96544.50
2023-12-12T11:39:11.691Z,96535.25
2023-12-12T11:41:56.627Z,96528.38
2023-12-12T11:44:41.896Z,96528.94
2023-12-12T11:47:27.461Z,96528.63
2023-12-12T11:50:12.700Z,96511.72
2023-12-12T11:52:57.594Z,96502.22
2023-12-12T11:55:42.422Z,96505.50
2023-12-12T11:58:27.585Z,96503.56
2023-12-12T12:01:13.055Z,96501.66
2023-12-12T12:03:58.362Z,96498.13
2023-12-12T12:06:43.810Z,96487.25
2023-12-12T12:09:28.708Z,96491.06
2023-12-12T12:12:13.719Z,96481.50
2023-12-12T12:14:58.660Z,96484.22
2023-12-12T12:17:43.969Z,96486.16
2023-12-12T12:20:29.318Z,96484.22
2023-12-12T12:23:14.096Z,96487.75
2023-12-12T12:25:59.090Z,96492.38
2023-12-12T12:28:44.177Z,96492.38
2023-12-12T12:31:29.320Z,96485.84
2023-12-12T12:34:14.377Z,96480.72
2023-12-12T12:37:02.091Z,96476.88
2023-12-12T12:39:47.415Z,96465.19
2023-12-12T12:42:32.898Z,96425.50
2023-12-12T12:45:18.225Z,96370.59
2023-12-12T12:48:03.291Z,96359.44
2023-12-12T12:50:48.704Z,96392.06
2023-12-12T12:53:33.823Z,96415.44
2023-12-12T13:02:37.269Z,96442.63
2023-12-12T13:05:22.471Z,96436.09
2023-12-12T13:08:07.622Z,96441.22
2023-12-12T13:10:52.614Z,96440.94
2023-12-12T13:13:38.125Z,96430.34
2023-12-12T13:16:23.150Z,96421.38
2023-12-12T13:19:08.643Z,96400.72
2023-12-12T13:21:54.129Z,96403.97
2023-12-12T13:24:39.528Z,96404.25
2023-12-12T15:54:03.349Z,96366.34
2023-12-12T15:56:48.774Z,96377.22
2023-12-12T15:59:35.794Z,96372.31
2023-12-12T16:02:20.948Z,96364.16
2023-12-12T16:05:06.369Z,96364.94
2023-12-12T16:07:51.775Z,96380.16
2023-12-12T16:10:37.145Z,96376.63
2023-12-12T16:13:22.749Z,96373.63
2023-12-12T16:16:08.127Z,96372.00
2023-12-12T16:18:53.635Z,96366.56
2023-12-12T16:21:39.073Z,96361.44
2023-12-12T16:24:24.015Z,96368.75
2023-12-12T16:27:09.069Z,96368.47
2023-12-12T16:29:53.865Z,96376.91
2023-12-12T16:32:38.954Z,96373.13
2023-12-12T16:35:24.237Z,96368.47
2023-12-12T16:38:09.309Z,96374.72
2023-12-12T16:40:54.380Z,96368.19
2023-12-12T16:43:39.858Z,96363.84
2023-12-12T16:46:25.385Z,96369.28
2023-12-12T16:49:10.619Z,96337.44
2023-12-12T17:11:30.206Z,96299.16
2023-12-12T17:14:15.130Z,96306.22
2023-12-12T17:17:00.073Z,96299.69
